Maysel, West Virginia
Current Conditions -  °F | °C
As of 4:54 AM on Friday 28 Nov 2014 (Local Time) from KCRW Reporting Station
Light Snow Light Snow  
Wind Chill: 22°   Ceiling: 3200
Heat Index: 28°   Visibility: 6mi
Dew Point: 22°   Wind: 6mph
Humidity: 78%   Direction: 250°WSW
Pressure: 30.35"   Gusts: NA
Location:  38.49°N, 81.11°W
Report Text: KCRW 280954Z 25005KT 6SM -SN BKN032 OVC050 M02/M06 A3035 RMK AO2 SLP288 PCPN VRY LGT P0000 T10221056
Loading
Personal Weather Stations






























Interactive Weather Map New forecast layout! Learn more

10-Day Weather Forecast

Advertisements
Track Severe Weather on mobile